Fords Creek, Mississippi
Current Conditions -  °F | °C
As of 7:53 PM on Wednesday 26 Nov 2014 (Local Time) from KHBG Reporting Station
Clear Clear  
Wind Chill: 54°   Ceiling: Unl
Heat Index: 54°   Visibility: 10mi
Dew Point: 39°   Wind: 5mph
Humidity: 57%   Direction: 220°SW
Pressure: 30.17"   Gusts: NA
Location:  30.8781°N, 89.5858°W
Report Text: KHBG 270153Z AUTO 22004KT 10SM CLR 12/04 A3017 RMK AO2 SLP216 T01220039
Loading
Personal Weather Stations






























Interactive Weather Map New forecast layout! Learn more

10-Day Weather Forecast

Advertisements
Track Severe Weather on mobile